Terminal Aerodrome Forecast
Issued by NWS Atlanta, GA

Home | Current Version | Previous Version | Text Only | Print | Product List | Glossary On
Versions: 1 2 3 4 5 6 7 8 9 10 11 12 13 14 15 16 17 18 19 20 21 22 23 24 25 26 27 28 29 30
000
FTUS42 KFFC 311125
TAFMCN
TAF
KMCN 311125Z 3112/0112 05008KT P6SM SKC
     FM312100 06010KT P6SM FEW040 BKN120
     FM010300 05006KT P6SM BKN025
     FM010900 05003KT P6SM BKN008=

USA.gov is the U.S. government's official web portal to all federal, state and local government web resources and services.